Latest Weather Observations for Creal Reef

IDQ60801

Issued at 6:02 pm EST Tuesday 23 April 2019 (issued every 10 minutes, with the page automatically refreshed every 10 minutes)

About weather observations | Map of weather stations | Latest weather observations for QLD | Other Formats
Station Details ID: 200736 Name: CREAL REEF Lat: -20.53 Lon: 150.38 Height: 1.7 m
Data from the previous 72 hours. | See also: Recent months for locations in Queensland
Date/Time
EST
Temp
°C
App
Temp
°C
Dew
Point
°C
Rel
Hum
%
Delta-T
°C
Wind Press
QNH
hPa
Press
MSL
hPa
Rain since
9am
mm
Dir  Spd
km/h
Gust
km/h
Spd
kts
Gust
kts
23/06:00pm 26.3 - - - - SE 41 48 22 26 1013.5 1013.4 -
23/05:30pm 26.5 - - - - SE 43 50 23 27 1013.5 1013.4 -
23/05:00pm 26.4 - - - - SE 44 48 24 26 1013.3 1013.2 -
23/04:30pm 26.4 - - - - SE 39 46 21 25 1013.3 1013.2 -
23/04:00pm 26.5 - - - - SE 39 44 21 24 1013.3 1013.2 -
23/03:30pm 26.5 - - - - SE 39 44 21 24 1013.2 1013.1 -
23/03:00pm 26.5 - - - - SE 37 43 20 23 1013.0 1012.9 -
23/02:30pm 26.3 - - - - SE 39 46 21 25 1013.1 1013.0 -
23/02:00pm 26.3 - - - - SE 37 44 20 24 1013.5 1013.4 -
23/01:30pm 26.5 - - - - ESE 37 44 20 24 1013.9 1013.8 -
23/01:00pm 26.5 - - - - ESE 39 46 21 25 1014.2 1014.1 -
23/12:30pm 26.5 - - - - ESE 39 46 21 25 1014.4 1014.3 -
23/12:00pm 26.3 - - - - SE 39 46 21 25 1014.7 1014.6 -
23/11:30am 26.5 - - - - ESE 43 48 23 26 1015.1 1015.0 -
23/11:00am 26.3 - - - - ESE 39 44 21 24 1015.4 1015.3 -
23/10:30am 26.4 - - - - ESE 41 48 22 26 1015.7 1015.6 -
23/10:00am 26.2 - - - - ESE 41 48 22 26 1015.9 1015.8 -
23/09:30am 26.3 - - - - ESE 37 44 20 24 1015.8 1015.7 -
23/09:00am 26.3 - - - - ESE 41 48 22 26 1015.7 1015.6 -
23/08:30am 25.5 - - - - ESE 39 56 21 30 1015.5 1015.4 -
23/08:00am 24.9 - - - - SE 26 32 14 17 1015.5 1015.4 -
23/07:30am 23.2 - - - - ESE 46 56 25 30 1015.7 1015.6 -
23/07:17am 23.9 - - - - ESE 44 57 24 31 1015.6 1015.5 -
23/07:00am 24.9 - - - - ESE 33 39 18 21 1015.1 1015.0 -
23/06:30am 25.6 - - - - ESE 33 41 18 22 1014.9 1014.8 -
23/06:00am 26.0 - - - - ESE 37 43 20 23 1014.5 1014.4 -
23/05:30am 25.7 - - - - ESE 37 43 20 23 1014.2 1014.1 -
23/05:00am 25.5 - - - - ESE 39 46 21 25 1013.9 1013.8 -
23/04:30am 25.5 - - - - SE 39 43 21 23 1013.7 1013.6 -
23/04:00am 25.5 - - - - SE 37 46 20 25 1013.6 1013.5 -
23/03:30am 25.4 - - - - SE 41 48 22 26 1013.8 1013.7 -
23/03:00am 25.4 - - - - SE 41 48 22 26 1013.9 1013.8 -
23/02:30am 25.6 - - - - SE 44 52 24 28 1014.1 1014.0 -
23/02:00am 25.9 - - - - SE 43 48 23 26 1014.2 1014.1 -
23/01:30am 26.0 - - - - SE 39 46 21 25 1014.3 1014.2 -
23/01:00am 25.7 - - - - SE 39 46 21 25 1014.5 1014.4 -
23/12:30am 25.3 - - - - SE 41 48 22 26 1014.9 1014.8 -
23/12:00am 25.3 - - - - SE 46 54 25 29 1015.0 1014.9 -
 
Date/Time
EST
Temp
°C
App
Temp
°C
Dew
Point
°C
Rel
Hum
%
Delta-T
°C
Wind Press
QNH
hPa
Press
MSL
hPa
Rain since
9am
mm
Dir  Spd
km/h
Gust
km/h
Spd
kts
Gust
kts
22/11:30pm 26.0 - - - - SE 44 54 24 29 1015.1 1015.0 -
22/11:00pm 26.0 - - - - SE 41 50 22 27 1015.3 1015.2 -
22/10:30pm 25.9 - - - - SE 44 54 24 29 1015.4 1015.3 -
22/10:00pm 26.1 - - - - SE 43 48 23 26 1015.5 1015.4 -
22/09:30pm 26.2 - - - - SE 41 46 22 25 1015.5 1015.4 -
22/09:00pm 26.1 - - - - SE 41 48 22 26 1015.6 1015.5 -
22/08:30pm 26.1 - - - - SE 43 48 23 26 1015.6 1015.5 -
22/08:00pm 26.0 - - - - SE 41 48 22 26 1015.3 1015.2 -
22/07:30pm 26.2 - - - - SE 41 50 22 27 1015.0 1014.9 -
22/07:00pm 26.2 - - - - SE 39 44 21 24 1014.4 1014.3 -
22/06:30pm 26.2 - - - - ESE 39 44 21 24 1014.1 1014.0 -
22/06:00pm 26.3 - - - - ESE 39 44 21 24 1013.9 1013.8 -
22/05:30pm 26.1 - - - - ESE 39 43 21 23 1013.4 1013.3 -
22/05:00pm 26.3 - - - - SE 41 46 22 25 1013.3 1013.2 -
22/04:30pm 26.0 - - - - SE 37 44 20 24 1013.0 1012.9 -
22/04:00pm 26.2 - - - - SE 35 41 19 22 1012.8 1012.7 -
22/03:30pm 24.9 - - - - E 20 30 11 16 1012.8 1012.7 -
22/03:00pm 23.3 - - - - ESE 35 41 19 22 1012.9 1012.8 -
22/02:47pm 23.5 - - - - ESE 41 48 22 26 1013.0 - -
22/02:44pm 23.6 - - - - SE 37 48 20 26 1012.9 1012.8 -
22/02:30pm 24.2 - - - - SE 32 37 17 20 1012.7 1012.6 -
22/02:00pm 24.5 - - - - ESE 37 43 20 23 1012.7 1012.6 -
22/01:30pm 24.4 - - - - ESE 26 37 14 20 1012.9 1012.8 -
22/01:00pm 23.8 - - - - E 46 54 25 29 1013.2 1013.1 -
22/12:51pm 24.8 - - - - ESE 33 52 18 28 1013.3 1013.2 -
22/12:30pm 25.4 - - - - ESE 35 39 19 21 1013.4 1013.3 -
22/12:00pm 24.8 - - - - ESE 37 43 20 23 1013.8 1013.7 -
22/11:30am 25.2 - - - - SE 32 37 17 20 1014.2 1014.1 -
22/11:19am 24.8 - - - - ESE 35 41 19 22 1014.3 1014.2 -
22/11:17am 25.0 - - - - ESE 32 41 17 22 1014.3 - -
22/11:00am 25.8 - - - - E 37 44 20 24 1014.5 1014.4 -
22/10:30am 25.9 - - - - ESE 32 35 17 19 1014.9 1014.8 -
22/10:00am 25.5 - - - - ESE 37 44 20 24 1015.1 1015.0 -
22/09:30am 25.1 - - - - ESE 37 43 20 23 1015.2 1015.1 -
22/09:00am 24.6 - - - - E 35 41 19 22 1014.9 1014.8 -
22/08:33am 24.9 - - - - E 28 46 15 25 1014.6 1014.5 -
22/08:30am 24.7 - - - - ENE 24 35 13 19 1014.6 1014.5 -
22/08:00am 24.5 - - - - ENE 24 35 13 19 1014.3 1014.2 -
22/07:30am 23.0 - - - - ENE 35 43 19 23 1014.3 1014.2 -
22/07:23am 23.3 - - - - ENE 28 44 15 24 1014.2 1014.1 -
22/07:00am 24.1 - - - - ENE 22 26 12 14 1013.8 1013.7 -
22/06:30am 23.9 - - - - ESE 35 43 19 23 1013.5 1013.4 -
22/06:04am 24.6 - - - - ESE 35 43 19 23 1013.3 1013.2 -
22/06:00am 24.9 - - - - ESE 32 43 17 23 1013.1 1013.0 -
22/05:59am 24.8 - - - - ESE 32 43 17 23 1013.1 1013.0 -
22/05:30am 24.2 - - - - E 35 41 19 22 1012.7 1012.6 -
22/05:00am 23.0 - - - - E 41 69 22 37 1012.7 1012.6 -
22/04:59am 23.5 - - - - E 39 69 21 37 1012.5 1012.4 -
22/04:39am 23.7 - - - - E 28 50 15 27 1012.5 1012.4 -
22/04:30am 23.5 - - - - E 35 46 19 25 1012.4 1012.3 -
22/04:00am 24.7 - - - - ESE 32 41 17 22 1012.2 1012.1 -
22/03:30am 25.3 - - - - ESE 32 37 17 20 1012.2 1012.1 -
22/03:00am 25.4 - - - - ESE 39 44 21 24 1012.2 1012.1 -
22/02:30am 25.0 - - - - SE 35 43 19 23 1012.5 1012.4 -
22/02:00am 25.3 - - - - SE 35 41 19 22 1012.7 1012.6 -
22/01:30am 25.6 - - - - SE 33 39 18 21 1012.8 1012.7 -
22/01:00am 24.9 - - - - SE 35 48 19 26 1013.0 1012.9 -
22/12:30am 25.8 - - - - SE 33 37 18 20 1013.4 1013.3 -
22/12:00am 26.0 - - - - SE 33 37 18 20 1013.7 1013.6 -
 
Date/Time
EST
Temp
°C
App
Temp
°C
Dew
Point
°C
Rel
Hum
%
Delta-T
°C
Wind Press
QNH
hPa
Press
MSL
hPa
Rain since
9am
mm
Dir  Spd
km/h
Gust
km/h
Spd
kts
Gust
kts
21/11:30pm 25.8 - - - - SE 32 37 17 20 1013.9 1013.8 -
21/11:00pm 26.1 - - - - SE 32 37 17 20 1014.2 1014.1 -
21/10:30pm 26.0 - - - - SE 33 39 18 21 1014.3 1014.2 -
21/10:00pm 26.1 - - - - SE 32 35 17 19 1014.3 1014.2 -
21/09:30pm 26.1 - - - - SE 35 41 19 22 1014.2 1014.1 -
21/09:00pm 26.0 - - - - SE 33 39 18 21 1014.3 1014.2 -
21/08:30pm 26.0 - - - - SE 35 41 19 22 1014.1 1014.0 -
21/08:00pm 25.9 - - - - SE 35 39 19 21 1013.9 1013.8 -
21/07:30pm 25.9 - - - - SE 35 43 19 23 1013.5 1013.4 -
21/07:00pm 25.9 - - - - SE 35 43 19 23 1013.2 1013.1 -
21/06:30pm 26.0 - - - - SE 35 41 19 22 1012.9 1012.8 -
21/06:00pm 26.0 - - - - SE 35 39 19 21 1012.6 1012.5 -
21/05:30pm 26.0 - - - - SE 30 35 16 19 1012.3 1012.2 -
21/05:00pm 26.3 - - - - SE 35 41 19 22 1012.0 1011.9 -
21/04:30pm 26.3 - - - - SSE 28 32 15 17 1011.9 1011.8 -
21/04:00pm 26.3 - - - - SE 26 30 14 16 1011.7 1011.6 -
21/03:30pm 26.3 - - - - SE 33 39 18 21 1011.6 1011.5 -
21/03:00pm 26.3 - - - - SE 37 43 20 23 1011.7 1011.6 -
21/02:30pm 26.5 - - - - SE 37 43 20 23 1011.9 1011.8 -
21/02:00pm 26.4 - - - - SE 35 41 19 22 1012.2 1012.1 -
21/01:30pm 26.2 - - - - SE 39 44 21 24 1012.4 1012.3 -
21/01:00pm 26.4 - - - - SE 28 32 15 17 1012.8 1012.7 -
21/12:30pm 26.3 - - - - SSE 24 28 13 15 1013.1 1013.0 -
21/12:00pm 26.1 - - - - SE 28 32 15 17 1013.3 1013.2 -
21/11:30am 26.0 - - - - SE 24 28 13 15 1013.7 1013.6 -
21/11:00am 25.9 - - - - SE 28 32 15 17 1014.1 1014.0 -
21/10:30am 26.3 - - - - SSE 22 26 12 14 1014.3 1014.2 -
21/10:00am 26.0 - - - - SE 26 30 14 16 1014.4 1014.3 -
21/09:30am 26.2 - - - - SSE 24 30 13 16 1014.6 1014.5 -
21/09:00am 26.2 - - - - SSE 20 24 11 13 1014.4 1014.3 -
21/08:30am 25.9 - - - - SE 28 32 15 17 1014.1 1014.0 -
21/08:00am 25.9 - - - - SE 28 32 15 17 1013.9 1013.8 -
21/07:30am 26.1 - - - - SE 28 33 15 18 1013.8 1013.7 -
21/07:00am 25.9 - - - - ESE 24 26 13 14 1013.6 1013.5 -
21/06:30am 25.9 - - - - ESE 19 20 10 11 1013.3 1013.2 -
21/06:00am 25.7 - - - - ESE 19 22 10 12 1013.1 1013.0 -
21/05:30am 25.7 - - - - ESE 24 26 13 14 1012.6 1012.5 -
21/05:00am 25.7 - - - - ESE 22 26 12 14 1012.3 1012.2 -
21/04:30am 25.8 - - - - E 15 19 8 10 1011.9 1011.8 -
21/04:00am 25.8 - - - - E 17 20 9 11 1012.0 1011.9 -
21/03:30am 25.8 - - - - ESE 17 19 9 10 1012.1 1012.0 -
21/03:00am 25.6 - - - - E 13 15 7 8 1012.0 1011.9 -
21/02:30am 25.7 - - - - E 13 15 7 8 1012.2 1012.1 -
21/02:00am 25.5 - - - - E 20 24 11 13 1012.2 1012.1 -
21/01:30am 25.8 - - - - ESE 32 35 17 19 1012.8 1012.7 -
21/01:00am 25.6 - - - - SE 33 41 18 22 1012.5 1012.4 -
21/12:30am 25.0 - - - - SE 43 69 23 37 1013.1 1013.0 -
21/12:28am 26.0 - - - - SE 41 67 22 36 1013.0 1012.9 -
21/12:00am 26.1 - - - - SE 39 46 21 25 1013.1 1013.0 -
 
Date/Time
EST
Temp
°C
App
Temp
°C
Dew
Point
°C
Rel
Hum
%
Delta-T
°C
Wind Press
QNH
hPa
Press
MSL
hPa
Rain since
9am
mm
Dir  Spd
km/h
Gust
km/h
Spd
kts
Gust
kts
20/11:30pm 26.2 - - - - SE 43 52 23 28 1013.2 1013.1 -
20/11:00pm 25.6 - - - - SE 39 48 21 26 1013.5 1013.4 -
20/10:30pm 26.3 - - - - SE 39 44 21 24 1013.9 1013.8 -
20/10:00pm 26.2 - - - - SE 37 44 20 24 1013.9 1013.8 -
20/09:30pm 26.1 - - - - SSE 32 39 17 21 1013.5 1013.4 -
20/09:00pm 26.1 - - - - SE 41 52 22 28 1013.2 1013.1 -
20/08:30pm 26.0 - - - - SE 39 46 21 25 1013.4 1013.3 -
20/08:00pm 25.9 - - - - SE 39 44 21 24 1013.4 1013.3 -
20/07:30pm 25.7 - - - - SE 37 44 20 24 1013.2 1013.1 -
20/07:00pm 25.9 - - - - SE 37 43 20 23 1012.8 1012.7 -
20/06:30pm 25.6 - - - - SE 41 46 22 25 1012.6 1012.5 -

Other formats

Comma delimited format used in spreadsheet applications
http://www.bom.gov.au/fwo/IDQ60801/IDQ60801.94371.axf

JavaScript Object Notation format (JSON) in row-major order
http://www.bom.gov.au/fwo/IDQ60801/IDQ60801.94371.json

Data quality

Most of these data are generated automatically and are frequently updated. Quality checks on data are not normally performed. It is possible for incorrect values to appear. Refer to information at About Latest Weather Observations and please check the disclaimer before using these data.